Time;durP1;ratioP1;P1;durP2;ratioP2;P2;SDS_P1;SDS_P2;PMS_P1;PMS_P2;Temp;Humidity;BMP_temperature;BMP_pressure;BME280_temperature;BME280_humidity;BME280_pressure;Samples;Min_cycle;Max_cycle;Signal;HPM_P1;HPM_P2
2024/01/25 00:01:15;;;;;;;26.42;4.38;;;;;;;;;;5024163;28;20194;-74
2024/01/25 00:03:40;;;;;;;23.35;4.10;;;;;;;;;;5041879;28;20193;-74
2024/01/25 00:06:06;;;;;;;31.85;4.90;;;;;;;;;;5040861;28;20712;-75
2024/01/25 00:08:32;;;;;;;29.58;4.88;;;;;;;;;;5048091;28;20278;-74
2024/01/25 00:10:57;;;;;;;32.28;4.65;;;;;;;;;;5042898;28;20803;-73
2024/01/25 00:13:23;;;;;;;24.60;4.57;;;;;;;;;;5042292;28;20342;-73
2024/01/25 00:15:48;;;;;;;28.80;4.45;;;;;;;;;;5047479;28;20248;-73
2024/01/25 00:18:14;;;;;;;33.38;4.85;;;;;;;;;;5042306;28;20343;-74
2024/01/25 00:20:39;;;;;;;24.63;4.80;;;;;;;;;;5033072;28;20562;-73
2024/01/25 00:23:04;;;;;;;31.30;4.80;;;;;;;;;;5038070;28;20626;-73
2024/01/25 00:25:30;;;;;;;26.90;4.78;;;;;;;;;;5031817;28;20193;-73
2024/01/25 00:27:55;;;;;;;33.75;5.28;;;;;;;;;;5044246;28;20221;-73
2024/01/25 00:30:21;;;;;;;29.25;5.28;;;;;;;;;;5048977;28;20224;-73
2024/01/25 00:32:46;;;;;;;37.80;4.90;;;;;;;;;;5036174;28;20204;-73
2024/01/25 00:35:13;;;;;;;34.28;5.60;;;;;;;;;;5039729;28;20222;-73
2024/01/25 00:37:40;;;;;;;28.85;4.72;;;;;;;;;;5034871;28;20181;-73
2024/01/25 00:40:06;;;;;;;34.55;4.80;;;;;;;;;;5049589;28;20193;-73
2024/01/25 00:42:34;;;;;;;25.38;4.88;;;;;;;;;;5038710;28;20173;-73
2024/01/25 00:45:00;;;;;;;30.38;4.93;;;;;;;;;;5014392;28;20198;-74
2024/01/25 00:47:26;;;;;;;26.30;4.28;;;;;;;;;;5029626;28;20289;-73
2024/01/25 00:49:51;;;;;;;27.33;4.88;;;;;;;;;;5028857;28;20632;-74
2024/01/25 00:52:17;;;;;;;35.92;5.65;;;;;;;;;;5033998;28;20204;-74
2024/01/25 00:54:43;;;;;;;30.20;5.03;;;;;;;;;;5037019;28;20227;-74
2024/01/25 00:57:09;;;;;;;33.22;5.60;;;;;;;;;;5036623;28;20186;-74
2024/01/25 00:59:35;;;;;;;28.27;5.32;;;;;;;;;;5043163;28;20280;-74
2024/01/25 01:02:04;;;;;;;26.45;4.45;;;;;;;;;;5045432;28;20190;-74
2024/01/25 01:04:29;;;;;;;26.13;4.70;;;;;;;;;;5036957;28;20263;-74
2024/01/25 01:06:55;;;;;;;26.15;4.72;;;;;;;;;;5033387;28;20879;-74
2024/01/25 01:09:20;;;;;;;34.38;5.40;;;;;;;;;;5030219;28;20193;-74
2024/01/25 01:11:46;;;;;;;30.92;4.13;;;;;;;;;;5036286;28;20213;-74
2024/01/25 01:14:12;;;;;;;37.50;5.22;;;;;;;;;;5040382;28;20685;-74
2024/01/25 01:16:37;;;;;;;26.05;4.60;;;;;;;;;;5035671;28;20305;-74
2024/01/25 01:19:06;;;;;;;33.50;4.97;;;;;;;;;;5041535;28;20210;-74
2024/01/25 01:21:35;;;;;;;31.67;5.20;;;;;;;;;;5039385;28;20277;-74
2024/01/25 01:24:01;;;;;;;30.23;5.65;;;;;;;;;;5034642;28;20264;-74
2024/01/25 01:26:27;;;;;;;31.58;5.32;;;;;;;;;;5045818;28;20189;-74
2024/01/25 01:28:52;;;;;;;26.83;4.80;;;;;;;;;;5046252;28;20672;-74
2024/01/25 01:31:17;;;;;;;26.90;4.32;;;;;;;;;;5042753;28;20200;-74
2024/01/25 01:33:43;;;;;;;37.00;5.70;;;;;;;;;;5041109;28;20190;-75
2024/01/25 01:36:08;;;;;;;38.63;5.72;;;;;;;;;;5044050;28;20189;-75
2024/01/25 01:38:34;;;;;;;36.00;4.90;;;;;;;;;;5036003;28;20185;-74
2024/01/25 01:40:59;;;;;;;30.13;5.70;;;;;;;;;;5026590;28;20189;-75
2024/01/25 01:43:25;;;;;;;27.60;5.70;;;;;;;;;;5036142;28;20197;-75
2024/01/25 01:45:50;;;;;;;30.65;5.28;;;;;;;;;;5042456;28;20236;-74
2024/01/25 01:48:17;;;;;;;26.40;4.57;;;;;;;;;;5029249;28;20618;-74
2024/01/25 01:50:46;;;;;;;30.25;5.10;;;;;;;;;;5023864;28;20629;-74
2024/01/25 01:53:12;;;;;;;34.17;5.07;;;;;;;;;;5027532;28;20186;-74
2024/01/25 01:55:39;;;;;;;36.42;5.95;;;;;;;;;;5033387;28;20220;-74
2024/01/25 01:58:05;;;;;;;36.38;4.78;;;;;;;;;;5038550;28;20689;-74
2024/01/25 02:00:31;;;;;;;35.70;5.43;;;;;;;;;;5040404;28;20277;-74
2024/01/25 02:02:57;;;;;;;46.13;5.45;;;;;;;;;;5034176;28;20188;-74
2024/01/25 02:05:24;;;;;;;32.90;5.07;;;;;;;;;;5027258;28;20183;-74
2024/01/25 02:07:51;;;;;;;34.63;5.53;;;;;;;;;;5030786;28;20248;-74
2024/01/25 02:10:17;;;;;;;27.97;5.00;;;;;;;;;;5036886;28;20660;-74
2024/01/25 02:12:42;;;;;;;29.38;4.72;;;;;;;;;;5041761;28;20228;-74
2024/01/25 02:15:08;;;;;;;32.75;5.15;;;;;;;;;;5034761;28;20194;-74
2024/01/25 02:17:34;;;;;;;24.77;5.28;;;;;;;;;;5043264;28;20371;-74
2024/01/25 02:20:00;;;;;;;35.80;5.80;;;;;;;;;;5051402;28;20213;-74
2024/01/25 02:22:26;;;;;;;36.57;5.93;;;;;;;;;;5048045;28;20509;-74
2024/01/25 02:24:51;;;;;;;34.93;5.03;;;;;;;;;;5049593;28;20197;-74
2024/01/25 02:27:16;;;;;;;32.58;5.15;;;;;;;;;;5038350;28;20270;-74
2024/01/25 02:29:42;;;;;;;41.17;5.17;;;;;;;;;;5051252;28;20198;-74
2024/01/25 02:32:07;;;;;;;39.87;5.80;;;;;;;;;;5027149;28;20189;-74
2024/01/25 02:34:33;;;;;;;36.90;5.20;;;;;;;;;;5037494;28;20185;-74
2024/01/25 02:36:58;;;;;;;34.60;4.67;;;;;;;;;;5037028;28;20202;-74
2024/01/25 02:39:23;;;;;;;36.80;5.33;;;;;;;;;;5033275;28;20320;-75
2024/01/25 02:41:49;;;;;;;34.57;4.97;;;;;;;;;;5042006;28;20190;-74
2024/01/25 02:44:15;;;;;;;32.43;4.87;;;;;;;;;;5037038;28;20240;-74
2024/01/25 02:46:40;;;;;;;29.85;4.53;;;;;;;;;;5031275;28;20186;-74
2024/01/25 02:49:06;;;;;;;34.50;5.25;;;;;;;;;;5042498;28;20225;-76
2024/01/25 02:51:31;;;;;;;31.33;4.97;;;;;;;;;;5045948;28;20606;-74
2024/01/25 02:53:57;;;;;;;32.43;5.07;;;;;;;;;;5041858;28;20212;-74
2024/01/25 02:56:22;;;;;;;34.83;5.30;;;;;;;;;;5035941;28;20245;-74
2024/01/25 02:58:47;;;;;;;40.20;5.50;;;;;;;;;;5038667;28;20261;-74
2024/01/25 03:01:13;;;;;;;34.83;4.97;;;;;;;;;;5026578;28;20206;-74
2024/01/25 03:03:38;;;;;;;38.70;5.27;;;;;;;;;;5033834;28;20248;-74
2024/01/25 03:06:06;;;;;;;38.10;5.97;;;;;;;;;;5043819;28;20615;-74
2024/01/25 03:08:31;;;;;;;38.83;5.10;;;;;;;;;;5034045;28;20324;-76
2024/01/25 03:10:56;;;;;;;36.20;6.50;;;;;;;;;;5033675;28;20595;-74
2024/01/25 03:13:22;;;;;;;28.27;4.80;;;;;;;;;;5028999;28;20664;-74
2024/01/25 03:15:47;;;;;;;31.47;4.60;;;;;;;;;;5036424;28;20186;-74
2024/01/25 03:18:13;;;;;;;32.63;4.90;;;;;;;;;;5043042;28;20229;-75
2024/01/25 03:20:40;;;;;;;35.37;5.23;;;;;;;;;;5033202;28;20656;-75
2024/01/25 03:23:06;;;;;;;39.77;5.10;;;;;;;;;;5063435;28;20194;-75
2024/01/25 03:25:31;;;;;;;42.70;4.77;;;;;;;;;;5052515;28;20190;-74
2024/01/25 03:27:57;;;;;;;36.37;5.17;;;;;;;;;;5045420;28;20210;-74
2024/01/25 03:30:22;;;;;;;44.03;5.73;;;;;;;;;;5038747;28;20189;-74
2024/01/25 03:32:48;;;;;;;39.33;5.63;;;;;;;;;;5033004;28;20188;-74
2024/01/25 03:35:13;;;;;;;45.57;5.60;;;;;;;;;;5030485;28;20193;-74
2024/01/25 03:37:39;;;;;;;31.93;5.37;;;;;;;;;;5037151;28;20189;-74
2024/01/25 03:40:05;;;;;;;32.43;5.87;;;;;;;;;;5043029;28;20201;-74
2024/01/25 03:42:30;;;;;;;42.53;6.30;;;;;;;;;;5044323;28;20186;-74
2024/01/25 03:44:56;;;;;;;36.43;5.43;;;;;;;;;;5045217;28;20535;-74
2024/01/25 03:47:21;;;;;;;42.20;5.67;;;;;;;;;;5032562;28;20303;-74
2024/01/25 03:49:47;;;;;;;47.13;5.97;;;;;;;;;;5042012;28;20189;-74
2024/01/25 03:52:13;;;;;;;33.90;4.93;;;;;;;;;;5043131;28;20257;-74
2024/01/25 03:54:38;;;;;;;34.57;5.10;;;;;;;;;;5042371;28;20313;-74
2024/01/25 03:57:04;;;;;;;39.37;4.40;;;;;;;;;;5037220;28;20190;-75
2024/01/25 03:59:29;;;;;;;47.60;6.17;;;;;;;;;;5022593;28;20190;-74
2024/01/25 04:01:55;;;;;;;37.90;5.07;;;;;;;;;;5033391;28;20405;-74
2024/01/25 04:04:20;;;;;;;38.37;5.40;;;;;;;;;;5034575;28;20198;-74
2024/01/25 04:06:46;;;;;;;29.73;5.13;;;;;;;;;;5034068;28;20198;-75
2024/01/25 04:09:13;;;;;;;37.43;4.70;;;;;;;;;;5029837;28;20217;-74
2024/01/25 04:11:38;;;;;;;40.33;5.60;;;;;;;;;;5047380;28;20189;-74
2024/01/25 04:14:05;;;;;;;37.93;5.13;;;;;;;;;;5048527;28;20545;-74
2024/01/25 04:16:32;;;;;;;48.43;6.03;;;;;;;;;;5033808;28;20625;-74
2024/01/25 04:18:58;;;;;;;52.90;5.80;;;;;;;;;;5036253;28;20247;-74
2024/01/25 04:21:23;;;;;;;37.27;6.33;;;;;;;;;;5053923;28;20212;-74
2024/01/25 04:23:49;;;;;;;44.13;5.63;;;;;;;;;;5035410;28;20236;-74
2024/01/25 04:26:16;;;;;;;34.70;6.27;;;;;;;;;;5035136;28;20251;-74
2024/01/25 04:28:41;;;;;;;32.10;5.10;;;;;;;;;;5034426;28;20225;-74
2024/01/25 04:31:07;;;;;;;38.90;5.03;;;;;;;;;;5043473;28;20273;-75
2024/01/25 04:33:32;;;;;;;37.83;5.37;;;;;;;;;;5029989;28;20186;-74
2024/01/25 04:35:58;;;;;;;43.47;5.37;;;;;;;;;;5040236;28;20182;-74
2024/01/25 04:38:23;;;;;;;35.07;5.10;;;;;;;;;;5037626;28;20185;-74
2024/01/25 04:40:48;;;;;;;48.03;5.43;;;;;;;;;;5036862;28;20597;-74
2024/01/25 04:43:14;;;;;;;48.20;6.87;;;;;;;;;;5026340;28;20201;-74
2024/01/25 04:45:40;;;;;;;43.77;5.50;;;;;;;;;;5047804;28;20177;-74
2024/01/25 04:48:06;;;;;;;46.17;5.87;;;;;;;;;;5029361;28;20221;-74
2024/01/25 04:50:32;;;;;;;40.40;6.57;;;;;;;;;;5037136;28;20594;-74
2024/01/25 04:52:57;;;;;;;41.27;4.53;;;;;;;;;;5037817;28;20267;-74
2024/01/25 04:55:22;;;;;;;34.80;5.07;;;;;;;;;;5046706;28;20180;-74
2024/01/25 04:57:51;;;;;;;39.23;6.33;;;;;;;;;;5034182;28;20220;-74
2024/01/25 05:00:17;;;;;;;42.57;5.67;;;;;;;;;;5030345;28;20320;-74
2024/01/25 05:02:42;;;;;;;36.87;4.87;;;;;;;;;;5035373;28;20220;-74
2024/01/25 05:05:08;;;;;;;45.53;5.60;;;;;;;;;;5040219;28;20512;-74
2024/01/25 05:07:33;;;;;;;44.23;4.73;;;;;;;;;;5040025;28;20201;-74
2024/01/25 05:09:58;;;;;;;40.10;5.40;;;;;;;;;;5034534;28;20530;-74
2024/01/25 05:12:24;;;;;;;41.30;5.17;;;;;;;;;;5034094;28;20614;-74
2024/01/25 05:14:49;;;;;;;34.43;4.53;;;;;;;;;;5037967;28;20657;-74
2024/01/25 05:17:15;;;;;;;42.67;5.00;;;;;;;;;;5049391;28;20713;-74
2024/01/25 05:19:40;;;;;;;36.53;5.20;;;;;;;;;;5032859;28;20677;-74
2024/01/25 05:22:06;;;;;;;47.53;6.27;;;;;;;;;;5033272;28;20195;-74
2024/01/25 05:24:32;;;;;;;47.57;5.90;;;;;;;;;;5033695;28;20197;-74
2024/01/25 05:26:58;;;;;;;49.90;5.67;;;;;;;;;;5035490;28;20347;-74
2024/01/25 05:29:23;;;;;;;41.97;5.20;;;;;;;;;;5033853;28;20264;-74
2024/01/25 05:31:49;;;;;;;39.77;5.33;;;;;;;;;;5035219;28;20459;-74
2024/01/25 05:34:15;;;;;;;46.13;6.93;;;;;;;;;;5035676;28;20685;-74
2024/01/25 05:36:41;;;;;;;40.60;6.27;;;;;;;;;;5037348;28;20261;-74
2024/01/25 05:39:07;;;;;;;46.03;5.23;;;;;;;;;;5040804;28;20190;-74
2024/01/25 05:41:33;;;;;;;52.53;6.40;;;;;;;;;;5044050;28;20192;-74
2024/01/25 05:43:59;;;;;;;37.10;4.97;;;;;;;;;;5032741;28;20186;-74
2024/01/25 05:46:25;;;;;;;41.93;5.10;;;;;;;;;;5036662;28;20316;-73
2024/01/25 05:48:50;;;;;;;38.30;4.70;;;;;;;;;;5038214;28;20304;-73
2024/01/25 05:51:16;;;;;;;41.73;6.17;;;;;;;;;;5039917;28;20178;-73
2024/01/25 05:53:41;;;;;;;32.13;4.53;;;;;;;;;;5044088;28;20193;-73
2024/01/25 05:56:07;;;;;;;43.20;5.67;;;;;;;;;;5040342;28;20474;-73
2024/01/25 05:58:33;;;;;;;46.53;5.80;;;;;;;;;;5038113;28;20212;-73
2024/01/25 06:00:58;;;;;;;36.73;6.43;;;;;;;;;;5036889;28;20248;-73
2024/01/25 06:03:24;;;;;;;39.70;5.20;;;;;;;;;;5030773;28;20185;-74
2024/01/25 06:05:49;;;;;;;43.00;5.53;;;;;;;;;;5019905;28;20193;-74
2024/01/25 06:08:14;;;;;;;35.03;5.73;;;;;;;;;;5031165;28;20209;-74
2024/01/25 06:10:40;;;;;;;41.10;5.70;;;;;;;;;;5030605;28;20186;-74
2024/01/25 06:13:05;;;;;;;33.03;5.40;;;;;;;;;;5037428;28;20555;-74
2024/01/25 06:15:31;;;;;;;44.40;6.20;;;;;;;;;;5039101;28;20194;-74
2024/01/25 06:17:57;;;;;;;37.50;5.40;;;;;;;;;;5036911;28;20213;-73
2024/01/25 06:20:22;;;;;;;48.93;5.80;;;;;;;;;;5039235;28;20194;-73
2024/01/25 06:22:48;;;;;;;45.03;6.10;;;;;;;;;;5038226;28;20211;-74
2024/01/25 06:25:13;;;;;;;49.17;5.77;;;;;;;;;;5038292;28;20192;-74
2024/01/25 06:27:39;;;;;;;36.30;5.57;;;;;;;;;;5041452;28;20680;-73
2024/01/25 06:30:05;;;;;;;41.90;5.93;;;;;;;;;;5043209;28;20190;-74
2024/01/25 06:32:31;;;;;;;39.90;5.70;;;;;;;;;;5043376;28;20262;-73
2024/01/25 06:34:56;;;;;;;45.20;5.73;;;;;;;;;;5032648;28;20654;-74
2024/01/25 06:37:22;;;;;;;48.07;6.87;;;;;;;;;;5037581;28;20177;-74
2024/01/25 06:39:47;;;;;;;40.90;5.87;;;;;;;;;;5044849;28;20185;-74
2024/01/25 06:42:13;;;;;;;58.90;6.33;;;;;;;;;;5017608;28;20209;-73
2024/01/25 06:44:38;;;;;;;43.00;7.13;;;;;;;;;;5037714;28;20201;-73
2024/01/25 06:47:04;;;;;;;53.77;6.13;;;;;;;;;;5044019;28;20182;-73
2024/01/25 06:49:29;;;;;;;40.23;5.40;;;;;;;;;;5040178;28;20196;-74
2024/01/25 06:51:55;;;;;;;40.37;5.97;;;;;;;;;;5035961;28;20190;-74
2024/01/25 06:54:20;;;;;;;42.17;5.57;;;;;;;;;;5034504;28;20201;-73
2024/01/25 06:56:46;;;;;;;44.73;5.50;;;;;;;;;;5039073;28;20263;-73
2024/01/25 06:59:12;;;;;;;36.47;5.77;;;;;;;;;;5038680;28;20208;-73
2024/01/25 07:01:37;;;;;;;48.33;5.53;;;;;;;;;;5039504;28;21343;-74
2024/01/25 07:04:03;;;;;;;53.43;6.00;;;;;;;;;;5024414;28;20200;-74
2024/01/25 07:06:29;;;;;;;44.63;6.50;;;;;;;;;;5036159;28;20192;-74
2024/01/25 07:08:54;;;;;;;46.33;6.17;;;;;;;;;;5039411;28;20529;-74
2024/01/25 07:11:21;;;;;;;41.83;6.03;;;;;;;;;;5048773;28;20190;-74
2024/01/25 07:13:46;;;;;;;37.67;6.17;;;;;;;;;;5033591;28;20273;-74
2024/01/25 07:16:11;;;;;;;38.53;5.90;;;;;;;;;;5036210;28;20341;-74
2024/01/25 07:18:37;;;;;;;47.57;5.90;;;;;;;;;;5037947;28;20759;-74
2024/01/25 07:21:02;;;;;;;41.43;5.67;;;;;;;;;;5038508;28;20237;-74
2024/01/25 07:23:30;;;;;;;46.93;5.77;;;;;;;;;;5043899;28;20272;-74
2024/01/25 07:25:55;;;;;;;51.47;6.13;;;;;;;;;;5034627;28;20674;-74
2024/01/25 07:28:21;;;;;;;39.60;6.30;;;;;;;;;;5037800;28;20319;-74
2024/01/25 07:30:47;;;;;;;43.53;5.77;;;;;;;;;;5045203;28;20653;-74
2024/01/25 07:33:13;;;;;;;43.50;6.20;;;;;;;;;;5028876;28;20198;-75
2024/01/25 07:35:45;;;;;;;37.20;7.23;;;;;;;;;;5044588;28;20183;-74
2024/01/25 07:38:11;;;;;;;41.43;6.07;;;;;;;;;;5039253;28;20186;-75
2024/01/25 07:40:36;;;;;;;42.13;6.10;;;;;;;;;;5044724;28;20579;-75
2024/01/25 07:43:01;;;;;;;48.80;7.10;;;;;;;;;;5015451;28;20191;-75
2024/01/25 07:45:27;;;;;;;41.23;6.17;;;;;;;;;;5035250;28;20665;-74
2024/01/25 07:47:52;;;;;;;38.40;6.10;;;;;;;;;;5038790;28;20198;-75
2024/01/25 07:50:18;;;;;;;44.43;6.27;;;;;;;;;;5037907;28;20664;-75
2024/01/25 07:52:43;;;;;;;44.60;6.50;;;;;;;;;;5041292;28;20578;-75
2024/01/25 07:55:09;;;;;;;44.37;6.63;;;;;;;;;;5012084;28;20536;-75
2024/01/25 07:57:35;;;;;;;40.60;5.73;;;;;;;;;;5030527;28;20649;-75
2024/01/25 08:00:00;;;;;;;43.03;8.60;;;;;;;;;;5046285;28;20653;-75
2024/01/25 08:02:25;;;;;;;45.57;6.17;;;;;;;;;;5033487;28;20637;-75
2024/01/25 08:04:51;;;;;;;45.63;7.70;;;;;;;;;;5037759;28;20196;-75
2024/01/25 08:07:16;;;;;;;40.90;6.43;;;;;;;;;;5041967;28;20197;-74
2024/01/25 08:09:42;;;;;;;43.37;6.33;;;;;;;;;;5043894;28;20197;-74
2024/01/25 08:12:08;;;;;;;47.90;8.43;;;;;;;;;;5034521;28;20323;-74
2024/01/25 08:14:33;;;;;;;52.73;6.13;;;;;;;;;;5050004;28;20196;-74
2024/01/25 08:16:59;;;;;;;43.73;7.40;;;;;;;;;;5037022;28;20225;-74
2024/01/25 08:19:25;;;;;;;46.20;7.97;;;;;;;;;;5048610;28;20631;-74
2024/01/25 08:21:50;;;;;;;44.27;6.33;;;;;;;;;;5042115;28;20244;-74
2024/01/25 08:24:16;;;;;;;44.70;6.87;;;;;;;;;;5041191;28;20179;-74
2024/01/25 08:26:41;;;;;;;44.67;7.70;;;;;;;;;;5041600;28;20283;-74
2024/01/25 08:29:06;;;;;;;42.27;6.57;;;;;;;;;;5039420;28;20209;-74
2024/01/25 08:31:32;;;;;;;49.03;8.73;;;;;;;;;;5042235;28;20387;-74
2024/01/25 08:33:57;;;;;;;34.07;6.10;;;;;;;;;;5039854;28;20196;-74
2024/01/25 08:36:24;;;;;;;45.67;8.00;;;;;;;;;;5032207;28;20626;-73
2024/01/25 08:38:50;;;;;;;42.60;6.30;;;;;;;;;;5016456;28;20182;-74
2024/01/25 08:41:16;;;;;;;43.23;6.67;;;;;;;;;;5030837;28;20197;-74
2024/01/25 08:43:42;;;;;;;37.53;6.23;;;;;;;;;;5025862;28;20188;-74
2024/01/25 08:46:07;;;;;;;47.93;7.20;;;;;;;;;;5042217;28;20220;-74
2024/01/25 08:48:33;;;;;;;43.10;6.77;;;;;;;;;;5037477;28;20206;-74
2024/01/25 08:50:58;;;;;;;39.87;6.97;;;;;;;;;;5031441;28;20185;-74
2024/01/25 08:53:27;;;;;;;51.17;7.00;;;;;;;;;;5034159;28;20657;-75
2024/01/25 08:55:53;;;;;;;45.30;8.60;;;;;;;;;;5032951;28;20232;-74
2024/01/25 08:58:18;;;;;;;38.63;6.47;;;;;;;;;;5031286;28;20208;-75
2024/01/25 09:00:44;;;;;;;40.30;7.13;;;;;;;;;;5030755;28;20213;-74
2024/01/25 09:03:09;;;;;;;40.37;6.23;;;;;;;;;;5040502;28;20189;-74
2024/01/25 09:05:39;;;;;;;53.10;7.43;;;;;;;;;;5043879;28;20284;-74
2024/01/25 09:08:05;;;;;;;47.10;6.83;;;;;;;;;;5031044;28;20210;-74
2024/01/25 09:10:30;;;;;;;40.33;7.07;;;;;;;;;;5040901;28;20197;-74
2024/01/25 09:12:55;;;;;;;48.03;7.37;;;;;;;;;;5033038;28;20243;-74
2024/01/25 09:15:21;;;;;;;51.13;7.97;;;;;;;;;;5040079;28;20649;-74
2024/01/25 09:17:46;;;;;;;41.77;7.23;;;;;;;;;;5039353;28;20233;-74
2024/01/25 09:20:12;;;;;;;37.13;7.73;;;;;;;;;;5030873;28;20212;-74
2024/01/25 09:22:37;;;;;;;49.47;6.93;;;;;;;;;;5041259;28;20529;-74
2024/01/25 09:25:04;;;;;;;43.07;7.07;;;;;;;;;;5040904;28;20305;-74
2024/01/25 09:27:30;;;;;;;41.37;6.87;;;;;;;;;;5025410;28;20288;-74
2024/01/25 09:29:55;;;;;;;40.83;8.50;;;;;;;;;;5037556;28;20653;-74
2024/01/25 09:32:20;;;;;;;49.93;7.23;;;;;;;;;;5031058;28;20213;-74
2024/01/25 09:34:46;;;;;;;51.53;6.97;;;;;;;;;;5041205;28;20219;-74
2024/01/25 09:37:11;;;;;;;42.00;6.77;;;;;;;;;;5030857;28;20220;-74
2024/01/25 09:39:37;;;;;;;42.70;6.57;;;;;;;;;;5036258;28;20606;-74
2024/01/25 09:42:07;;;;;;;45.20;8.47;;;;;;;;;;5042328;28;20193;-74
2024/01/25 09:44:32;;;;;;;40.92;7.38;;;;;;;;;;5050076;28;20601;-74
2024/01/25 09:46:58;;;;;;;38.55;7.07;;;;;;;;;;5044099;28;20205;-74
2024/01/25 09:49:23;;;;;;;45.43;7.03;;;;;;;;;;5035048;28;20210;-74
2024/01/25 09:51:51;;;;;;;41.47;7.37;;;;;;;;;;5038603;28;20213;-74
2024/01/25 09:54:16;;;;;;;36.38;7.40;;;;;;;;;;5043617;28;20185;-74
2024/01/25 09:56:42;;;;;;;45.22;7.93;;;;;;;;;;5027254;28;20192;-74
2024/01/25 09:59:08;;;;;;;37.50;6.03;;;;;;;;;;5038220;28;20240;-74
2024/01/25 10:01:34;;;;;;;37.43;7.10;;;;;;;;;;5038773;28;20296;-74
2024/01/25 10:03:59;;;;;;;43.00;7.27;;;;;;;;;;5030852;28;20276;-74
2024/01/25 10:06:25;;;;;;;39.63;6.80;;;;;;;;;;5025967;28;20486;-74
2024/01/25 10:08:52;;;;;;;44.40;6.75;;;;;;;;;;5034302;28;20215;-74
2024/01/25 10:11:17;;;;;;;55.53;9.43;;;;;;;;;;5036630;28;20217;-74
2024/01/25 10:13:47;;;;;;;45.80;7.43;;;;;;;;;;5034987;28;20563;-74
2024/01/25 10:16:17;;;;;;;42.08;6.90;;;;;;;;;;5031497;28;20650;-74
2024/01/25 10:18:45;;;;;;;45.38;7.05;;;;;;;;;;5038495;28;20265;-74
2024/01/25 10:21:12;;;;;;;51.40;8.60;;;;;;;;;;5034117;28;20255;-75
2024/01/25 10:23:38;;;;;;;38.45;6.75;;;;;;;;;;5037855;28;20213;-74
2024/01/25 10:26:04;;;;;;;47.75;6.65;;;;;;;;;;5042951;28;20190;-74
2024/01/25 10:28:31;;;;;;;38.15;6.03;;;;;;;;;;5035568;28;20206;-74
2024/01/25 10:30:57;;;;;;;39.55;6.50;;;;;;;;;;5037361;28;20190;-74
2024/01/25 10:33:25;;;;;;;43.00;6.93;;;;;;;;;;5037255;28;20240;-74
2024/01/25 10:35:55;;;;;;;44.60;7.25;;;;;;;;;;5035736;28;20223;-74
2024/01/25 10:38:21;;;;;;;44.13;6.95;;;;;;;;;;5022689;28;20208;-75
2024/01/25 10:40:47;;;;;;;38.20;6.50;;;;;;;;;;5034510;28;20190;-75
2024/01/25 10:43:13;;;;;;;37.95;7.32;;;;;;;;;;5039406;28;20277;-75
2024/01/25 10:45:39;;;;;;;31.75;5.82;;;;;;;;;;5035912;28;20190;-75
2024/01/25 10:48:05;;;;;;;36.42;6.97;;;;;;;;;;5042561;28;20259;-75
2024/01/25 10:50:30;;;;;;;41.40;6.78;;;;;;;;;;5040451;28;20193;-75
2024/01/25 10:52:57;;;;;;;37.92;7.28;;;;;;;;;;5037540;28;20190;-75
2024/01/25 10:55:23;;;;;;;37.40;7.32;;;;;;;;;;5041274;28;20193;-75
2024/01/25 10:57:48;;;;;;;33.10;6.38;;;;;;;;;;5038920;28;20543;-75
2024/01/25 11:00:15;;;;;;;34.45;6.40;;;;;;;;;;5042374;28;20188;-74
2024/01/25 11:02:42;;;;;;;38.00;7.10;;;;;;;;;;5021404;28;20186;-75
2024/01/25 11:05:15;;;;;;;32.92;7.32;;;;;;;;;;5034609;28;20209;-75
2024/01/25 11:07:48;;;;;;;37.83;8.13;;;;;;;;;;5032682;28;20214;-75
2024/01/25 11:10:19;;;;;;;46.22;7.03;;;;;;;;;;5044343;28;20240;-75
2024/01/25 11:12:49;;;;;;;39.95;8.55;;;;;;;;;;5024839;28;20328;-75
2024/01/25 11:15:19;;;;;;;30.77;7.05;;;;;;;;;;5018829;28;20185;-75
2024/01/25 11:17:52;;;;;;;36.50;8.52;;;;;;;;;;5036552;28;20834;-75
2024/01/25 11:20:21;;;;;;;36.78;7.60;;;;;;;;;;5038894;28;20224;-75
2024/01/25 11:22:46;;;;;;;46.42;8.52;;;;;;;;;;5038352;28;20265;-75
2024/01/25 11:25:21;;;;;;;37.17;7.97;;;;;;;;;;5044718;28;20738;-75
2024/01/25 11:27:49;;;;;;;36.72;7.68;;;;;;;;;;5039347;28;20262;-75
2024/01/25 11:30:17;;;;;;;42.70;7.63;;;;;;;;;;5038066;28;20497;-75
2024/01/25 11:32:43;;;;;;;51.65;9.27;;;;;;;;;;5029888;28;20178;-76
2024/01/25 11:35:11;;;;;;;40.38;8.07;;;;;;;;;;5020028;28;20204;-75
2024/01/25 11:37:36;;;;;;;38.80;7.97;;;;;;;;;;5038912;28;20588;-75
2024/01/25 11:40:03;;;;;;;39.90;7.60;;;;;;;;;;5034478;28;20200;-75
2024/01/25 11:42:30;;;;;;;36.80;7.07;;;;;;;;;;5043117;28;20190;-75
2024/01/25 11:44:56;;;;;;;46.97;8.57;;;;;;;;;;5035293;28;20335;-75
2024/01/25 11:47:21;;;;;;;31.58;7.00;;;;;;;;;;5033397;28;20198;-75
2024/01/25 11:49:47;;;;;;;34.97;6.90;;;;;;;;;;5037899;28;20212;-74
2024/01/25 11:52:13;;;;;;;33.75;7.28;;;;;;;;;;5038287;28;20848;-74
2024/01/25 11:54:38;;;;;;;50.50;7.60;;;;;;;;;;5031386;28;20186;-75
2024/01/25 11:57:05;;;;;;;41.10;8.07;;;;;;;;;;5038163;28;20259;-74
2024/01/25 11:59:30;;;;;;;28.08;6.63;;;;;;;;;;5031822;28;20185;-74
2024/01/25 12:01:56;;;;;;;34.50;7.32;;;;;;;;;;5032110;28;20213;-74
2024/01/25 12:04:21;;;;;;;37.47;6.90;;;;;;;;;;5037306;28;20193;-74
2024/01/25 12:06:47;;;;;;;30.50;7.28;;;;;;;;;;5043565;28;20189;-74
2024/01/25 12:09:15;;;;;;;30.30;8.07;;;;;;;;;;5046525;28;20210;-74
2024/01/25 12:11:41;;;;;;;37.50;7.88;;;;;;;;;;5043475;28;20574;-74
2024/01/25 12:14:10;;;;;;;42.00;7.05;;;;;;;;;;5035734;28;20693;-75
2024/01/25 12:16:36;;;;;;;43.42;7.97;;;;;;;;;;5036786;28;20260;-75
2024/01/25 12:19:02;;;;;;;37.63;8.35;;;;;;;;;;5030765;28;20237;-75
2024/01/25 12:21:33;;;;;;;34.55;7.15;;;;;;;;;;5048931;28;20684;-75
2024/01/25 12:23:58;;;;;;;28.30;6.38;;;;;;;;;;5036176;28;20223;-74
2024/01/25 12:26:24;;;;;;;45.50;7.63;;;;;;;;;;5044190;28;20201;-75
2024/01/25 12:28:50;;;;;;;41.53;7.78;;;;;;;;;;5034356;28;20572;-74
2024/01/25 12:31:15;;;;;;;33.40;7.15;;;;;;;;;;5038809;28;20196;-74
2024/01/25 12:33:41;;;;;;;36.53;7.22;;;;;;;;;;5041305;28;20672;-74
2024/01/25 12:36:07;;;;;;;37.05;6.97;;;;;;;;;;5037916;28;20244;-74
2024/01/25 12:38:34;;;;;;;40.40;7.43;;;;;;;;;;5038743;28;20186;-74
2024/01/25 12:41:00;;;;;;;36.13;7.25;;;;;;;;;;5038702;28;20672;-74
2024/01/25 12:43:26;;;;;;;42.25;6.70;;;;;;;;;;5045155;28;20216;-74
2024/01/25 12:45:51;;;;;;;36.42;7.38;;;;;;;;;;5040126;28;20648;-74
2024/01/25 12:48:17;;;;;;;37.47;7.13;;;;;;;;;;5045698;28;20279;-75
2024/01/25 12:50:43;;;;;;;41.08;6.85;;;;;;;;;;5034961;28;20363;-75
2024/01/25 12:53:12;;;;;;;42.13;6.65;;;;;;;;;;5044999;28;20651;-74
2024/01/25 12:55:38;;;;;;;35.83;6.20;;;;;;;;;;5036077;28;20192;-74
2024/01/25 12:58:04;;;;;;;32.13;6.38;;;;;;;;;;5039716;28;20616;-74
2024/01/25 13:00:29;;;;;;;34.28;6.72;;;;;;;;;;5033566;28;20212;-74
2024/01/25 13:02:56;;;;;;;40.75;6.50;;;;;;;;;;5033187;28;20186;-74
2024/01/25 13:05:22;;;;;;;38.15;6.95;;;;;;;;;;5034133;28;20227;-74
2024/01/25 13:07:47;;;;;;;32.28;6.35;;;;;;;;;;5031667;28;20205;-74
2024/01/25 13:10:13;;;;;;;33.05;6.03;;;;;;;;;;5032974;28;20196;-74
2024/01/25 13:12:39;;;;;;;36.92;6.63;;;;;;;;;;5023095;28;20193;-74
2024/01/25 13:15:08;;;;;;;34.13;5.93;;;;;;;;;;5026689;28;20269;-74
2024/01/25 13:17:37;;;;;;;35.42;6.35;;;;;;;;;;5033368;28;20245;-75
2024/01/25 13:20:05;;;;;;;36.95;6.85;;;;;;;;;;5031690;28;20247;-74
2024/01/25 13:22:32;;;;;;;40.00;6.60;;;;;;;;;;5038365;28;20228;-75
2024/01/25 13:24:59;;;;;;;29.27;5.82;;;;;;;;;;5035508;28;20208;-74
2024/01/25 13:27:24;;;;;;;41.60;7.75;;;;;;;;;;5031378;28;20219;-74
2024/01/25 13:29:50;;;;;;;38.80;6.22;;;;;;;;;;5025306;28;20198;-74
2024/01/25 13:32:15;;;;;;;34.15;6.50;;;;;;;;;;5032814;28;20259;-74
2024/01/25 13:34:41;;;;;;;27.02;5.43;;;;;;;;;;5034137;28;20186;-74
2024/01/25 13:37:06;;;;;;;32.97;6.38;;;;;;;;;;5033879;28;20204;-74
2024/01/25 13:39:32;;;;;;;34.72;6.65;;;;;;;;;;5018905;28;20196;-74
2024/01/25 13:41:58;;;;;;;31.77;6.80;;;;;;;;;;5032553;28;20617;-75
2024/01/25 13:44:23;;;;;;;36.78;5.95;;;;;;;;;;5038812;28;20213;-75
2024/01/25 13:46:50;;;;;;;39.15;8.20;;;;;;;;;;5037969;28;20695;-75
2024/01/25 13:49:15;;;;;;;35.22;7.30;;;;;;;;;;5037487;28;20220;-75
2024/01/25 13:51:41;;;;;;;28.98;6.15;;;;;;;;;;5029893;28;20264;-75
2024/01/25 13:54:06;;;;;;;34.75;7.60;;;;;;;;;;5047042;28;20197;-75
2024/01/25 13:56:32;;;;;;;39.05;6.50;;;;;;;;;;5043971;28;20198;-74
2024/01/25 13:58:57;;;;;;;37.83;7.30;;;;;;;;;;5035324;28;20221;-74
2024/01/25 14:01:22;;;;;;;31.75;6.60;;;;;;;;;;5032180;28;20197;-74
2024/01/25 14:03:48;;;;;;;31.42;6.85;;;;;;;;;;5043565;28;20231;-74
2024/01/25 14:06:13;;;;;;;38.17;7.05;;;;;;;;;;5048709;28;20189;-74
2024/01/25 14:08:39;;;;;;;31.42;6.40;;;;;;;;;;5043990;28;20254;-75
2024/01/25 14:11:05;;;;;;;42.72;6.75;;;;;;;;;;5053464;28;20185;-75
2024/01/25 14:13:31;;;;;;;38.53;7.22;;;;;;;;;;5056596;28;20349;-75
2024/01/25 14:15:58;;;;;;;36.70;6.75;;;;;;;;;;5048821;28;20225;-75
2024/01/25 14:18:24;;;;;;;37.63;6.95;;;;;;;;;;5049766;28;20217;-75
2024/01/25 14:20:50;;;;;;;34.88;7.38;;;;;;;;;;5052861;28;20201;-75
2024/01/25 14:23:15;;;;;;;35.28;6.50;;;;;;;;;;5040164;28;20186;-75